Terminal Aerodrome Forecast
Issued by NWS Albany, NY

Home | Current Version | Previous Version | Text Only | Print | Product List | Glossary On
Versions: 1 2 3 4 5 6 7 8 9 10 11 12 13 14 15 16 17 18 19
000
FTUS41 KALY 211100 RRA
TAFGFL
TAF
KGFL 211153Z 2112/2212 00000KT P6SM OVC015
     FM211400 19008KT P6SM BKN015 OVC035
     FM211600 19010KT P6SM SCT035 BKN120
     FM212100 21007KT 5SM -SHRA OVC035
     FM220000 26005KT P6SM SCT050 BKN100
     FM220700 23003KT 4SM BR FEW050 SCT100=

USA.gov is the U.S. government's official web portal to all federal, state and local government web resources and services.